KFFO/FFO METAR and TAF weather

Enter ICAO airport designator
Station Type Date Time Source
KFFO METAR 2019/06/18 12:46 UTC NOAA

KFFO 181246Z 21004KT 5SM BR OVC005 20/20 A2997 RMK AO2A SLP147


Station Type Date Time Source
KFFO Decoded METAR 2019/06/18 12:46 UTC NOAA

Dayton / Wright-Patterson Air Force Base, OH, United States (KFFO) 39-50N 084-03W 251M
Jun 18, 2019 - 08:46 AM EDT / 2019.06.18 1246 UTC
Wind: from the SSW (210 degrees) at 5 MPH (4 KT):0
Visibility: 5 mile(s):0
Sky conditions: overcast
Weather: mist
Temperature: 68 F (20 C)
Dew Point: 68 F (20 C)
Relative Humidity: 100%
Pressure (altimeter): 29.97 in. Hg (1014 hPa)
ob: KFFO 181246Z 21004KT 5SM BR OVC005 20/20 A2997 RMK AO2A SLP147
cycle: 13

Station Type Date Time Source
KFFO TAF 2019/06/18 12:39 UTC NOAA

TAF
AMD KFFO 181220Z 1812/1917 18006KT 3200 BR BKN005 OVC020 QNH2995INS
BECMG 1814/1815 18006KT 9000 -SHRA BKN030 QNH2992INS
BECMG 1900/1901 18006KT 9999 NSW BKN030 QNH2987INS
BECMG 1904/1905 22006KT 9000 BR BKN024 QNH2982INS
BECMG 1913/1914 27006KT 9999 NSW SCT030 QNH2979INS TX25/1821Z TN17/1910Z

Example: see airport list